Time;durP1;ratioP1;P1;durP2;ratioP2;P2;SDS_P1;SDS_P2;PMS_P1;PMS_P2;Temp;Humidity;BMP_temperature;BMP_pressure;BME280_temperature;BME280_humidity;BME280_pressure;Samples;Min_cycle;Max_cycle;Signal;HPM_P1;HPM_P2
2022/08/29 00:01:37;;;;;;;;;;;;;;;;;;5070116;28;19917;-59
2022/08/29 00:04:02;;;;;;;;;;;;;;;;;;5080493;28;19946;-59
2022/08/29 00:06:27;;;;;;;;;;;;;;;;;;5076625;28;19940;-60
2022/08/29 00:08:53;;;;;;;;;;;;;;;;;;5074476;28;20359;-60
2022/08/29 00:11:18;;;;;;;;;;;;;;;;;;5081944;28;19927;-60
2022/08/29 00:13:43;;;;;;;;;;;;;;;;;;5074708;28;20341;-59
2022/08/29 00:16:08;;;;;;;;;;;;;;;;;;5080122;28;20406;-59
2022/08/29 00:18:33;;;;;;;;;;;;;;;;;;5073029;28;19919;-60
2022/08/29 00:20:59;;;;;;;;;;;;;;;;;;5067983;28;19922;-60
2022/08/29 00:23:24;;;;;;;;;;;;;;;;;;5081407;28;19916;-60
2022/08/29 00:25:49;;;;;;;;;;;;;;;;;;5073602;28;19919;-59
2022/08/29 00:28:14;;;;;;;;;;;;;;;;;;5079807;28;20545;-59
2022/08/29 00:30:39;;;;;;;;;;;;;;;;;;5073189;28;20019;-59
2022/08/29 00:33:05;;;;;;;;;;;;;;;;;;5075175;28;19916;-59
2022/08/29 00:35:30;;;;;;;;;;;;;;;;;;5077446;28;19923;-59
2022/08/29 00:37:55;;;;;;;;;;;;;;;;;;5075249;28;20121;-60
2022/08/29 00:40:20;;;;;;;;;;;;;;;;;;5080212;28;19916;-60
2022/08/29 00:42:45;;;;;;;;;;;;;;;;;;5075936;28;19970;-60
2022/08/29 00:45:11;;;;;;;;;;;;;;;;;;5072876;28;19916;-59
2022/08/29 00:47:36;;;;;;;;;;;;;;;;;;5081815;28;19942;-59
2022/08/29 00:50:01;;;;;;;;;;;;;;;;;;5069007;28;20019;-59
2022/08/29 00:52:26;;;;;;;;;;;;;;;;;;5078855;28;19947;-59
2022/08/29 00:54:51;;;;;;;;;;;;;;;;;;5071895;28;19916;-58
2022/08/29 00:57:17;;;;;;;;;;;;;;;;;;5070564;28;19920;-59
2022/08/29 00:59:42;;;;;;;;;;;;;;;;;;5081112;28;20191;-59
2022/08/29 01:02:07;;;;;;;;;;;;;;;;;;5071637;28;19916;-59
2022/08/29 01:04:32;;;;;;;;;;;;;;;;;;5079977;28;20668;-59
2022/08/29 01:06:58;;;;;;;;;;;;;;;;;;5074721;28;20390;-58
2022/08/29 01:09:23;;;;;;;;;;;;;;;;;;5069418;28;20467;-60
2022/08/29 01:14:32;;;;;;;;;;;;;;;;;;5072069;28;19980;-59
2022/08/29 01:16:57;;;;;;;;;;;;;;;;;;5082623;28;19923;-59
2022/08/29 01:19:22;;;;;;;;;;;;;;;;;;5072556;28;19919;-59
2022/08/29 01:21:48;;;;;;;;;;;;;;;;;;5074868;28;19916;-59
2022/08/29 01:24:13;;;;;;;;;;;;;;;;;;5080147;28;20453;-60
2022/08/29 01:26:38;;;;;;;;;;;;;;;;;;5073060;28;19920;-59
2022/08/29 01:29:03;;;;;;;;;;;;;;;;;;5095542;28;20052;-60
2022/08/29 01:31:28;;;;;;;;;;;;;;;;;;5073873;28;20277;-58
2022/08/29 01:33:55;;;;;;;;;;;;;;;;;;5073720;28;19916;-59
2022/08/29 01:36:20;;;;;;;;;;;;;;;;;;5079179;28;19922;-60
2022/08/29 01:38:46;;;;;;;;;;;;;;;;;;5088048;28;19916;-59
2022/08/29 01:41:11;;;;;;;;;;;;;;;;;;5078977;28;20366;-60
2022/08/29 01:43:36;;;;;;;;;;;;;;;;;;5071899;28;19916;-59
2022/08/29 01:46:02;;;;;;;;;;;;;;;;;;5070250;28;19916;-59
2022/08/29 01:48:27;;;;;;;;;;;;;;;;;;5080240;28;20550;-59
2022/08/29 01:50:52;;;;;;;;;;;;;;;;;;5072343;28;19928;-60
2022/08/29 01:53:17;;;;;;;;;;;;;;;;;;5078725;28;20384;-59
2022/08/29 01:55:42;;;;;;;;;;;;;;;;;;5072839;28;19919;-59
2022/08/29 01:58:08;;;;;;;;;;;;;;;;;;5072110;28;19920;-59
2022/08/29 02:00:33;;;;;;;;;;;;;;;;;;5079019;28;19916;-59
2022/08/29 02:03:00;;;;;;;;;;;;;;;;;;5072194;28;19924;-59
2022/08/29 02:05:25;;;;;;;;;;;;;;;;;;5079459;28;20023;-58
2022/08/29 02:07:50;;;;;;;;;;;;;;;;;;5072903;28;19916;-58
2022/08/29 02:10:15;;;;;;;;;;;;;;;;;;5074020;28;19932;-58
2022/08/29 02:12:42;;;;;;;;;;;;;;;;;;5079449;28;20006;-59
2022/08/29 02:15:07;;;;;;;;;;;;;;;;;;5071617;27;19920;-60
2022/08/29 02:17:32;;;;;;;;;;;;;;;;;;5079438;28;20292;-61
2022/08/29 02:19:58;;;;;;;;;;;;;;;;;;5075061;28;19920;-59
2022/08/29 02:22:23;;;;;;;;;;;;;;;;;;5076218;28;19920;-59
2022/08/29 02:24:48;;;;;;;;;;;;;;;;;;5083869;28;19977;-60
2022/08/29 02:27:13;;;;;;;;;;;;;;;;;;5075846;28;20038;-59
2022/08/29 02:29:38;;;;;;;;;;;;;;;;;;5083242;28;19927;-58
2022/08/29 02:32:04;;;;;;;;;;;;;;;;;;5072873;28;19920;-59
2022/08/29 02:34:29;;;;;;;;;;;;;;;;;;5091217;28;19931;-59
2022/08/29 02:36:55;;;;;;;;;;;;;;;;;;5082422;28;20447;-58
2022/08/29 02:39:20;;;;;;;;;;;;;;;;;;5076520;28;20791;-58
2022/08/29 02:41:45;;;;;;;;;;;;;;;;;;5083933;28;19913;-59
2022/08/29 02:44:10;;;;;;;;;;;;;;;;;;5073261;28;20240;-58
2022/08/29 02:46:35;;;;;;;;;;;;;;;;;;5078511;28;19982;-58
2022/08/29 02:49:01;;;;;;;;;;;;;;;;;;5080512;28;20368;-58
2022/08/29 02:51:26;;;;;;;;;;;;;;;;;;5076945;28;19920;-59
2022/08/29 02:53:51;;;;;;;;;;;;;;;;;;5082863;28;19923;-59
2022/08/29 02:56:17;;;;;;;;;;;;;;;;;;5076510;28;20422;-58
2022/08/29 02:58:42;;;;;;;;;;;;;;;;;;5075264;28;19916;-58
2022/08/29 03:01:07;;;;;;;;;;;;;;;;;;5081429;28;20352;-59
2022/08/29 03:03:32;;;;;;;;;;;;;;;;;;5076943;28;20401;-59
2022/08/29 03:05:58;;;;;;;;;;;;;;;;;;5082057;28;19923;-59
2022/08/29 03:08:23;;;;;;;;;;;;;;;;;;5077870;28;19923;-59
2022/08/29 03:10:48;;;;;;;;;;;;;;;;;;5076736;28;19928;-59
2022/08/29 03:13:13;;;;;;;;;;;;;;;;;;5083231;28;20293;-58
2022/08/29 03:15:39;;;;;;;;;;;;;;;;;;5073816;28;20372;-59
2022/08/29 03:18:04;;;;;;;;;;;;;;;;;;5099234;27;20460;-59
2022/08/29 03:20:29;;;;;;;;;;;;;;;;;;5075489;28;20364;-59
2022/08/29 03:22:55;;;;;;;;;;;;;;;;;;5075836;28;19916;-60
2022/08/29 03:25:20;;;;;;;;;;;;;;;;;;5083558;28;19916;-59
2022/08/29 03:27:45;;;;;;;;;;;;;;;;;;5078993;28;19966;-59
2022/08/29 03:30:10;;;;;;;;;;;;;;;;;;5082322;28;19935;-59
2022/08/29 03:32:36;;;;;;;;;;;;;;;;;;5076976;28;20375;-59
2022/08/29 03:35:01;;;;;;;;;;;;;;;;;;5077613;28;19916;-59
2022/08/29 03:37:26;;;;;;;;;;;;;;;;;;5083834;28;19916;-59
2022/08/29 03:39:51;;;;;;;;;;;;;;;;;;5075009;28;19916;-59
2022/08/29 03:42:16;;;;;;;;;;;;;;;;;;5082743;28;19927;-61
2022/08/29 03:44:42;;;;;;;;;;;;;;;;;;5075999;28;20131;-58
2022/08/29 03:47:07;;;;;;;;;;;;;;;;;;5077545;28;19980;-58
2022/08/29 03:49:32;;;;;;;;;;;;;;;;;;5081823;28;19955;-58
2022/08/29 03:51:57;;;;;;;;;;;;;;;;;;5076359;28;20300;-59
2022/08/29 03:54:23;;;;;;;;;;;;;;;;;;5082164;28;19923;-58
2022/08/29 03:56:48;;;;;;;;;;;;;;;;;;5075431;28;19923;-59
2022/08/29 03:59:13;;;;;;;;;;;;;;;;;;5075231;28;20043;-59
2022/08/29 04:01:38;;;;;;;;;;;;;;;;;;5083641;28;19956;-59
2022/08/29 04:04:04;;;;;;;;;;;;;;;;;;5075831;28;19916;-58
2022/08/29 04:06:29;;;;;;;;;;;;;;;;;;5082187;28;20279;-59
2022/08/29 04:08:54;;;;;;;;;;;;;;;;;;5076351;28;19989;-60
2022/08/29 04:11:19;;;;;;;;;;;;;;;;;;5072571;28;20430;-59
2022/08/29 04:13:44;;;;;;;;;;;;;;;;;;5047445;28;19916;-58
2022/08/29 04:16:10;;;;;;;;;;;;;;;;;;5038702;28;20140;-59
2022/08/29 04:18:35;;;;;;;;;;;;;;;;;;5060456;28;19916;-59
2022/08/29 04:21:00;;;;;;;;;;;;;;;;;;5056609;28;19928;-60
2022/08/29 04:23:25;;;;;;;;;;;;;;;;;;5054645;28;20402;-58
2022/08/29 04:25:50;;;;;;;;;;;;;;;;;;5060426;28;20016;-58
2022/08/29 04:28:16;;;;;;;;;;;;;;;;;;5054093;28;19981;-59
2022/08/29 04:30:41;;;;;;;;;;;;;;;;;;5041773;28;19997;-58
2022/08/29 04:33:06;;;;;;;;;;;;;;;;;;5055023;28;19993;-60
2022/08/29 04:35:33;;;;;;;;;;;;;;;;;;5053830;28;20025;-59
2022/08/29 04:37:58;;;;;;;;;;;;;;;;;;5048240;28;19917;-59
2022/08/29 04:40:24;;;;;;;;;;;;;;;;;;5055191;28;19912;-60
2022/08/29 04:42:49;;;;;;;;;;;;;;;;;;5062748;28;19936;-60
2022/08/29 04:45:14;;;;;;;;;;;;;;;;;;5055527;28;20007;-60
2022/08/29 04:47:39;;;;;;;;;;;;;;;;;;5056352;28;19931;-58
2022/08/29 04:50:05;;;;;;;;;;;;;;;;;;5059709;28;20419;-59
2022/08/29 04:52:30;;;;;;;;;;;;;;;;;;5053699;28;20032;-60
2022/08/29 04:54:55;;;;;;;;;;;;;;;;;;5060606;28;19959;-60
2022/08/29 04:57:22;;;;;;;;;;;;;;;;;;5054543;28;19923;-59
2022/08/29 04:59:47;;;;;;;;;;;;;;;;;;5055074;28;19917;-58
2022/08/29 05:02:12;;;;;;;;;;;;;;;;;;5059108;28;19923;-59
2022/08/29 05:04:37;;;;;;;;;;;;;;;;;;5055960;28;20585;-59
2022/08/29 05:07:02;;;;;;;;;;;;;;;;;;5058936;28;20326;-60
2022/08/29 05:09:28;;;;;;;;;;;;;;;;;;5055733;28;19924;-57
2022/08/29 05:11:53;;;;;;;;;;;;;;;;;;5062150;28;19974;-60
2022/08/29 05:14:18;;;;;;;;;;;;;;;;;;5080242;28;19994;-59
2022/08/29 05:16:44;;;;;;;;;;;;;;;;;;5074496;28;19936;-60
2022/08/29 05:19:09;;;;;;;;;;;;;;;;;;5080067;28;20399;-60
2022/08/29 05:21:35;;;;;;;;;;;;;;;;;;5072770;28;19916;-58
2022/08/29 05:24:00;;;;;;;;;;;;;;;;;;5079800;28;19926;-58
2022/08/29 05:26:25;;;;;;;;;;;;;;;;;;5081487;28;19924;-58
2022/08/29 05:28:50;;;;;;;;;;;;;;;;;;5079230;28;19916;-58
2022/08/29 05:31:15;;;;;;;;;;;;;;;;;;5073896;28;19928;-58
2022/08/29 05:33:41;;;;;;;;;;;;;;;;;;5076098;28;19920;-58
2022/08/29 05:36:06;;;;;;;;;;;;;;;;;;5082846;28;20233;-58
2022/08/29 05:38:31;;;;;;;;;;;;;;;;;;5082221;28;19923;-59
2022/08/29 05:40:56;;;;;;;;;;;;;;;;;;5082479;28;20041;-59
2022/08/29 05:43:21;;;;;;;;;;;;;;;;;;5082318;28;20004;-59
2022/08/29 05:45:47;;;;;;;;;;;;;;;;;;5082108;28;20363;-58
2022/08/29 05:48:13;;;;;;;;;;;;;;;;;;5095961;28;19916;-59
2022/08/29 05:50:40;;;;;;;;;;;;;;;;;;5081750;28;19920;-60
2022/08/29 05:53:05;;;;;;;;;;;;;;;;;;5081112;28;19920;-61
2022/08/29 05:55:31;;;;;;;;;;;;;;;;;;5085871;28;20295;-59
2022/08/29 05:57:56;;;;;;;;;;;;;;;;;;5085573;28;20073;-60
2022/08/29 06:00:21;;;;;;;;;;;;;;;;;;5084897;28;19923;-58
2022/08/29 06:02:46;;;;;;;;;;;;;;;;;;5085116;28;19916;-59
2022/08/29 06:05:11;;;;;;;;;;;;;;;;;;5087823;28;19916;-59
2022/08/29 06:07:39;;;;;;;;;;;;;;;;;;5084413;28;19920;-58
2022/08/29 06:10:05;;;;;;;;;;;;;;;;;;5086872;28;20367;-59
2022/08/29 06:12:30;;;;;;;;;;;;;;;;;;5073966;28;19924;-59
2022/08/29 06:14:56;;;;;;;;;;;;;;;;;;5039491;28;19938;-58
2022/08/29 06:17:21;;;;;;;;;;;;;;;;;;5065791;28;20378;-58
2022/08/29 06:19:46;;;;;;;;;;;;;;;;;;5066033;28;19924;-59
2022/08/29 06:22:11;;;;;;;;;;;;;;;;;;5064475;28;19922;-59
2022/08/29 06:24:36;;;;;;;;;;;;;;;;;;5052066;28;20427;-60
2022/08/29 06:27:02;;;;;;;;;;;;;;;;;;5066025;28;19924;-58
2022/08/29 06:29:27;;;;;;;;;;;;;;;;;;5066878;28;19999;-58
2022/08/29 06:31:52;;;;;;;;;;;;;;;;;;5064525;28;19931;-60
2022/08/29 06:34:17;;;;;;;;;;;;;;;;;;5063601;28;19960;-58
2022/08/29 06:36:43;;;;;;;;;;;;;;;;;;5062076;28;19916;-59
2022/08/29 06:39:08;;;;;;;;;;;;;;;;;;5063751;28;19916;-58
2022/08/29 06:41:33;;;;;;;;;;;;;;;;;;5045963;28;20653;-60
2022/08/29 06:43:58;;;;;;;;;;;;;;;;;;5061803;28;20407;-59
2022/08/29 06:46:23;;;;;;;;;;;;;;;;;;5055658;28;19977;-58
2022/08/29 06:48:49;;;;;;;;;;;;;;;;;;5068984;28;20411;-59
2022/08/29 06:51:14;;;;;;;;;;;;;;;;;;5067767;28;19924;-59
2022/08/29 06:53:39;;;;;;;;;;;;;;;;;;5066546;28;19924;-59
2022/08/29 06:56:04;;;;;;;;;;;;;;;;;;5052466;28;20434;-59
2022/08/29 06:58:29;;;;;;;;;;;;;;;;;;5068033;28;20400;-59
2022/08/29 07:00:55;;;;;;;;;;;;;;;;;;5064371;28;19995;-60
2022/08/29 07:03:21;;;;;;;;;;;;;;;;;;5065454;28;20352;-59
2022/08/29 07:05:47;;;;;;;;;;;;;;;;;;5049635;28;20263;-59
2022/08/29 07:08:12;;;;;;;;;;;;;;;;;;5047517;28;19916;-59
2022/08/29 07:10:37;;;;;;;;;;;;;;;;;;5064436;28;20357;-61
2022/08/29 07:13:05;;;;;;;;;;;;;;;;;;5079579;28;19931;-60
2022/08/29 07:15:30;;;;;;;;;;;;;;;;;;5083239;28;20015;-60
2022/08/29 07:17:56;;;;;;;;;;;;;;;;;;5084932;28;20010;-59
2022/08/29 07:20:21;;;;;;;;;;;;;;;;;;5083005;28;19948;-59
2022/08/29 07:22:50;;;;;;;;;;;;;;;;;;5098917;28;19983;-59
2022/08/29 07:25:15;;;;;;;;;;;;;;;;;;5083919;28;19959;-60
2022/08/29 07:27:40;;;;;;;;;;;;;;;;;;5084582;28;20400;-59
2022/08/29 07:30:06;;;;;;;;;;;;;;;;;;5083568;28;20263;-59
2022/08/29 07:32:31;;;;;;;;;;;;;;;;;;5085403;28;19920;-59
2022/08/29 07:34:56;;;;;;;;;;;;;;;;;;5084062;28;19916;-59
2022/08/29 07:37:21;;;;;;;;;;;;;;;;;;5099978;28;19943;-59
2022/08/29 07:39:46;;;;;;;;;;;;;;;;;;5084246;28;19916;-59
2022/08/29 07:42:12;;;;;;;;;;;;;;;;;;5085128;28;19923;-61
2022/08/29 07:44:37;;;;;;;;;;;;;;;;;;5084753;28;19916;-59
2022/08/29 07:47:02;;;;;;;;;;;;;;;;;;5084633;28;20374;-59
2022/08/29 07:49:27;;;;;;;;;;;;;;;;;;5087875;28;19923;-58
2022/08/29 07:51:53;;;;;;;;;;;;;;;;;;5081907;28;19997;-59
2022/08/29 07:54:18;;;;;;;;;;;;;;;;;;5086650;28;19916;-60
2022/08/29 07:56:43;;;;;;;;;;;;;;;;;;5084931;28;19958;-60
2022/08/29 07:59:08;;;;;;;;;;;;;;;;;;5084745;28;19916;-60
2022/08/29 08:01:34;;;;;;;;;;;;;;;;;;5083242;28;20433;-60
2022/08/29 08:03:59;;;;;;;;;;;;;;;;;;5083032;28;20376;-60
2022/08/29 08:06:24;;;;;;;;;;;;;;;;;;5083346;28;19920;-60
2022/08/29 08:08:49;;;;;;;;;;;;;;;;;;5083277;28;19951;-59
2022/08/29 08:11:15;;;;;;;;;;;;;;;;;;5082653;28;19927;-60
2022/08/29 08:13:40;;;;;;;;;;;;;;;;;;5083476;28;20379;-59
2022/08/29 08:16:05;;;;;;;;;;;;;;;;;;5083854;28;19916;-60
2022/08/29 08:18:31;;;;;;;;;;;;;;;;;;5083310;28;19916;-61
2022/08/29 08:20:56;;;;;;;;;;;;;;;;;;5084538;28;19938;-60
2022/08/29 08:23:23;;;;;;;;;;;;;;;;;;5080406;28;21531;-61
2022/08/29 08:25:48;;;;;;;;;;;;;;;;;;5083365;28;20350;-60
2022/08/29 08:28:13;;;;;;;;;;;;;;;;;;5083988;28;19916;-60
2022/08/29 08:30:39;;;;;;;;;;;;;;;;;;5081642;28;19920;-60
2022/08/29 08:33:04;;;;;;;;;;;;;;;;;;5084805;28;20448;-60
2022/08/29 08:35:29;;;;;;;;;;;;;;;;;;5083364;28;20715;-61
2022/08/29 08:37:55;;;;;;;;;;;;;;;;;;5084200;28;19923;-60
2022/08/29 08:40:20;;;;;;;;;;;;;;;;;;5083236;28;19920;-61
2022/08/29 08:42:45;;;;;;;;;;;;;;;;;;5082250;28;19923;-60
2022/08/29 08:45:11;;;;;;;;;;;;;;;;;;5083712;28;19923;-60
2022/08/29 08:47:36;;;;;;;;;;;;;;;;;;5082604;28;19916;-60
2022/08/29 08:50:03;;;;;;;;;;;;;;;;;;5082802;28;20401;-60
2022/08/29 08:52:28;;;;;;;;;;;;;;;;;;5083398;28;19949;-60
2022/08/29 08:54:54;;;;;;;;;;;;;;;;;;5084031;28;20331;-61
2022/08/29 08:57:19;;;;;;;;;;;;;;;;;;5084057;28;19915;-60
2022/08/29 08:59:44;;;;;;;;;;;;;;;;;;5082994;28;20284;-60
2022/08/29 09:02:10;;;;;;;;;;;;;;;;;;5081973;28;20399;-60
2022/08/29 09:04:36;;;;;;;;;;;;;;;;;;5085034;28;19959;-60
2022/08/29 09:07:01;;;;;;;;;;;;;;;;;;5084774;28;20369;-60
2022/08/29 09:09:26;;;;;;;;;;;;;;;;;;5080986;28;19977;-59
2022/08/29 09:11:54;;;;;;;;;;;;;;;;;;5080128;28;19924;-60
2022/08/29 09:14:19;;;;;;;;;;;;;;;;;;5081083;28;19916;-60
2022/08/29 09:16:45;;;;;;;;;;;;;;;;;;5080758;28;20477;-60
2022/08/29 09:19:10;;;;;;;;;;;;;;;;;;5081800;28;20257;-60
2022/08/29 09:21:36;;;;;;;;;;;;;;;;;;5084935;28;19916;-60
2022/08/29 09:24:01;;;;;;;;;;;;;;;;;;5080620;28;20694;-60
2022/08/29 09:26:27;;;;;;;;;;;;;;;;;;5081289;28;19916;-61
2022/08/29 09:28:52;;;;;;;;;;;;;;;;;;5084653;28;20302;-60
2022/08/29 09:31:17;;;;;;;;;;;;;;;;;;5084098;28;20112;-60
2022/08/29 09:33:42;;;;;;;;;;;;;;;;;;5085897;28;19920;-60
2022/08/29 09:36:08;;;;;;;;;;;;;;;;;;5089935;28;19962;-61
2022/08/29 09:38:34;;;;;;;;;;;;;;;;;;5087524;28;19916;-61
2022/08/29 09:41:00;;;;;;;;;;;;;;;;;;5084750;28;20295;-60
2022/08/29 09:43:25;;;;;;;;;;;;;;;;;;5084862;28;19916;-60
2022/08/29 09:45:50;;;;;;;;;;;;;;;;;;5084386;28;19920;-61
2022/08/29 09:48:16;;;;;;;;;;;;;;;;;;5084657;28;19924;-60
2022/08/29 09:50:41;;;;;;;;;;;;;;;;;;5085637;28;20493;-61
2022/08/29 09:53:06;;;;;;;;;;;;;;;;;;5085405;28;19920;-60
2022/08/29 09:55:32;;;;;;;;;;;;;;;;;;5100983;28;20268;-61
2022/08/29 09:57:57;;;;;;;;;;;;;;;;;;5083442;28;20368;-60
2022/08/29 10:00:22;;;;;;;;;;;;;;;;;;5082329;28;20312;-59
2022/08/29 10:02:47;;;;;;;;;;;;;;;;;;5093037;28;20078;-61
2022/08/29 10:05:13;;;;;;;;;;;;;;;;;;5082672;28;19916;-60
2022/08/29 10:07:38;;;;;;;;;;;;;;;;;;5083267;28;19924;-60
2022/08/29 10:10:04;;;;;;;;;;;;;;;;;;5081853;28;20291;-60
2022/08/29 10:12:29;;;;;;;;;;;;;;;;;;5081925;28;19924;-60
2022/08/29 10:14:54;;;;;;;;;;;;;;;;;;5064198;28;19957;-61
2022/08/29 10:20:04;;;;;;;;;;;;;;;;;;5100233;28;19916;-60
2022/08/29 10:22:29;;;;;;;;;;;;;;;;;;5097867;28;20004;-60
2022/08/29 10:24:54;;;;;;;;;;;;;;;;;;5101779;28;19927;-60
2022/08/29 10:27:19;;;;;;;;;;;;;;;;;;5094291;28;19945;-61
2022/08/29 10:29:45;;;;;;;;;;;;;;;;;;5101821;28;19931;-60
2022/08/29 10:32:10;;;;;;;;;;;;;;;;;;5099501;28;19927;-61
2022/08/29 10:34:35;;;;;;;;;;;;;;;;;;5099983;28;19916;-61
2022/08/29 10:37:00;;;;;;;;;;;;;;;;;;5100896;28;19919;-61
2022/08/29 10:39:26;;;;;;;;;;;;;;;;;;5102785;28;19916;-61
2022/08/29 10:41:51;;;;;;;;;;;;;;;;;;5101762;28;19923;-61
2022/08/29 10:44:16;;;;;;;;;;;;;;;;;;5104985;28;19916;-61
2022/08/29 10:46:41;;;;;;;;;;;;;;;;;;5106262;28;19919;-62
2022/08/29 10:49:06;;;;;;;;;;;;;;;;;;5106411;28;20020;-61
2022/08/29 10:51:32;;;;;;;;;;;;;;;;;;5104235;28;20312;-61
2022/08/29 10:53:57;;;;;;;;;;;;;;;;;;5104871;28;19919;-62
2022/08/29 10:56:22;;;;;;;;;;;;;;;;;;5105577;28;19923;-62
2022/08/29 10:58:47;;;;;;;;;;;;;;;;;;5122170;27;19923;-61
2022/08/29 11:01:13;;;;;;;;;;;;;;;;;;5108274;27;20357;-62
2022/08/29 11:03:39;;;;;;;;;;;;;;;;;;5103358;28;20454;-61
2022/08/29 11:06:04;;;;;;;;;;;;;;;;;;5105959;28;20403;-62
2022/08/29 11:08:30;;;;;;;;;;;;;;;;;;5105685;28;19916;-61
2022/08/29 11:10:55;;;;;;;;;;;;;;;;;;5104501;27;19924;-62
2022/08/29 11:13:20;;;;;;;;;;;;;;;;;;5106455;28;19942;-62
2022/08/29 11:15:46;;;;;;;;;;;;;;;;;;5104094;28;19920;-62
2022/08/29 11:18:11;;;;;;;;;;;;;;;;;;5106848;28;19916;-61
2022/08/29 11:20:37;;;;;;;;;;;;;;;;;;5106939;28;19922;-61
2022/08/29 11:23:02;;;;;;;;;;;;;;;;;;5102621;27;20006;-62
2022/08/29 11:25:27;;;;;;;;;;;;;;;;;;5107091;28;20269;-62
2022/08/29 11:27:52;;;;;;;;;;;;;;;;;;5087736;28;19937;-61
2022/08/29 11:30:17;;;;;;;;;;;;;;;;;;5107419;28;19927;-61
2022/08/29 11:32:43;;;;;;;;;;;;;;;;;;5106766;28;20003;-62
2022/08/29 11:35:08;;;;;;;;;;;;;;;;;;5104654;28;19999;-62
2022/08/29 11:37:33;;;;;;;;;;;;;;;;;;5118227;27;20280;-59
2022/08/29 11:39:59;;;;;;;;;;;;;;;;;;5102074;28;20459;-59
2022/08/29 11:42:24;;;;;;;;;;;;;;;;;;5106196;28;19918;-59
2022/08/29 11:44:50;;;;;;;;;;;;;;;;;;5107876;28;20006;-60
2022/08/29 11:47:15;;;;;;;;;;;;;;;;;;5124326;27;19916;-59
2022/08/29 11:49:40;;;;;;;;;;;;;;;;;;5109399;28;20371;-61
2022/08/29 11:52:06;;;;;;;;;;;;;;;;;;5112434;27;20010;-61
2022/08/29 11:54:32;;;;;;;;;;;;;;;;;;5109116;28;20185;-61
2022/08/29 11:56:57;;;;;;;;;;;;;;;;;;5107908;28;19912;-62
2022/08/29 11:59:23;;;;;;;;;;;;;;;;;;5108342;28;19957;-61
2022/08/29 12:01:48;;;;;;;;;;;;;;;;;;5107343;28;19912;-62
2022/08/29 12:04:14;;;;;;;;;;;;;;;;;;5106962;28;19922;-61
2022/08/29 12:06:39;;;;;;;;;;;;;;;;;;5107269;28;19916;-62
2022/08/29 12:09:04;;;;;;;;;;;;;;;;;;5107551;28;19916;-62
2022/08/29 12:11:29;;;;;;;;;;;;;;;;;;5107976;28;19929;-62
2022/08/29 12:13:57;;;;;;;;;;;;;;;;;;5106711;28;19920;-61
2022/08/29 12:16:22;;;;;;;;;;;;;;;;;;5105908;28;19916;-62
2022/08/29 12:18:47;;;;;;;;;;;;;;;;;;5108210;28;20284;-61
2022/08/29 12:21:13;;;;;;;;;;;;;;;;;;5107347;28;20391;-62
2022/08/29 12:23:38;;;;;;;;;;;;;;;;;;5107123;28;20006;-62
2022/08/29 12:26:04;;;;;;;;;;;;;;;;;;5107714;28;19912;-62
2022/08/29 12:28:30;;;;;;;;;;;;;;;;;;5106580;28;19918;-62
2022/08/29 12:30:55;;;;;;;;;;;;;;;;;;5105231;28;19916;-62
2022/08/29 12:33:20;;;;;;;;;;;;;;;;;;5105867;28;19931;-62
2022/08/29 12:35:45;;;;;;;;;;;;;;;;;;5107865;28;19916;-62
2022/08/29 12:38:10;;;;;;;;;;;;;;;;;;5110478;27;19916;-63
2022/08/29 12:40:36;;;;;;;;;;;;;;;;;;5107933;28;20357;-62
2022/08/29 12:43:01;;;;;;;;;;;;;;;;;;5101780;28;19920;-63
2022/08/29 12:45:26;;;;;;;;;;;;;;;;;;5101245;28;19916;-61
2022/08/29 12:47:51;;;;;;;;;;;;;;;;;;5101805;28;19959;-62
2022/08/29 12:50:17;;;;;;;;;;;;;;;;;;5103249;28;19930;-62
2022/08/29 12:52:42;;;;;;;;;;;;;;;;;;5102720;28;20438;-62
2022/08/29 12:55:07;;;;;;;;;;;;;;;;;;5098797;28;20003;-62
2022/08/29 12:57:33;;;;;;;;;;;;;;;;;;5098291;28;20373;-62
2022/08/29 12:59:58;;;;;;;;;;;;;;;;;;5097725;28;19958;-61
2022/08/29 13:02:23;;;;;;;;;;;;;;;;;;5101189;28;19970;-62
2022/08/29 13:04:48;;;;;;;;;;;;;;;;;;5101259;28;20098;-62
2022/08/29 13:07:13;;;;;;;;;;;;;;;;;;5103641;28;20384;-61
2022/08/29 13:09:39;;;;;;;;;;;;;;;;;;5104570;28;20002;-61
2022/08/29 13:12:04;;;;;;;;;;;;;;;;;;5105449;28;19924;-62
2022/08/29 13:14:29;;;;;;;;;;;;;;;;;;5119888;27;20280;-61
2022/08/29 13:16:54;;;;;;;;;;;;;;;;;;5104776;28;20288;-62
2022/08/29 13:19:20;;;;;;;;;;;;;;;;;;5102214;28;19964;-63
2022/08/29 13:21:45;;;;;;;;;;;;;;;;;;5105794;28;20292;-63
2022/08/29 13:24:10;;;;;;;;;;;;;;;;;;5105074;28;19989;-62
2022/08/29 13:26:36;;;;;;;;;;;;;;;;;;5104900;28;20298;-62
2022/08/29 13:29:01;;;;;;;;;;;;;;;;;;5105748;28;19920;-62
2022/08/29 13:31:26;;;;;;;;;;;;;;;;;;5103240;28;19916;-62
2022/08/29 13:33:52;;;;;;;;;;;;;;;;;;5102842;28;19933;-62
2022/08/29 13:36:17;;;;;;;;;;;;;;;;;;5104223;28;19920;-62
2022/08/29 13:38:43;;;;;;;;;;;;;;;;;;5105358;28;19923;-62
2022/08/29 13:41:08;;;;;;;;;;;;;;;;;;5107085;28;19927;-62
2022/08/29 13:43:33;;;;;;;;;;;;;;;;;;5104286;28;19916;-61
2022/08/29 13:45:58;;;;;;;;;;;;;;;;;;5103938;28;19916;-62
2022/08/29 13:48:23;;;;;;;;;;;;;;;;;;5105298;28;19923;-62
2022/08/29 13:50:49;;;;;;;;;;;;;;;;;;5106701;28;19919;-62
2022/08/29 13:53:14;;;;;;;;;;;;;;;;;;5105961;28;19920;-61
2022/08/29 13:55:39;;;;;;;;;;;;;;;;;;5108434;28;20287;-62
2022/08/29 13:58:04;;;;;;;;;;;;;;;;;;5106888;28;19983;-62
2022/08/29 14:00:32;;;;;;;;;;;;;;;;;;5106435;28;19937;-61
2022/08/29 14:02:57;;;;;;;;;;;;;;;;;;5105708;28;19915;-61
2022/08/29 14:05:23;;;;;;;;;;;;;;;;;;5105591;28;19942;-62
2022/08/29 14:07:48;;;;;;;;;;;;;;;;;;5105932;28;19920;-62
2022/08/29 14:10:13;;;;;;;;;;;;;;;;;;5106378;28;19971;-62
2022/08/29 14:12:38;;;;;;;;;;;;;;;;;;5104904;28;20018;-65
2022/08/29 14:15:05;;;;;;;;;;;;;;;;;;5107520;28;19966;-62
2022/08/29 14:17:30;;;;;;;;;;;;;;;;;;5110496;28;19915;-60
2022/08/29 14:19:55;;;;;;;;;;;;;;;;;;5110026;28;19934;-61
2022/08/29 14:22:20;;;;;;;;;;;;;;;;;;5108430;28;19923;-61
2022/08/29 14:24:50;;;;;;;;;;;;;;;;;;5108700;28;19952;-61
2022/08/29 14:27:16;;;;;;;;;;;;;;;;;;5106523;28;20312;-61
2022/08/29 14:29:41;;;;;;;;;;;;;;;;;;5107427;28;19919;-61
2022/08/29 14:32:06;;;;;;;;;;;;;;;;;;5107889;28;19919;-61
2022/08/29 14:34:31;;;;;;;;;;;;;;;;;;5110602;27;19970;-62
2022/08/29 14:36:56;;;;;;;;;;;;;;;;;;5108634;28;20441;-61
2022/08/29 14:39:22;;;;;;;;;;;;;;;;;;5109679;28;19912;-61
2022/08/29 14:41:47;;;;;;;;;;;;;;;;;;5106813;28;19923;-62
2022/08/29 14:44:12;;;;;;;;;;;;;;;;;;5107964;28;19916;-61
2022/08/29 14:46:37;;;;;;;;;;;;;;;;;;5108972;28;19912;-61
2022/08/29 14:49:03;;;;;;;;;;;;;;;;;;5104736;28;19915;-61
2022/08/29 14:51:28;;;;;;;;;;;;;;;;;;5107553;28;19919;-62
2022/08/29 14:53:53;;;;;;;;;;;;;;;;;;5108912;28;19919;-61
2022/08/29 14:56:18;;;;;;;;;;;;;;;;;;5106884;28;19920;-62
2022/08/29 14:58:44;;;;;;;;;;;;;;;;;;5107889;28;19956;-62
2022/08/29 15:01:10;;;;;;;;;;;;;;;;;;5106108;28;19955;-62
2022/08/29 15:03:35;;;;;;;;;;;;;;;;;;5110064;27;19916;-62
2022/08/29 15:06:00;;;;;;;;;;;;;;;;;;5104978;28;20006;-62
2022/08/29 15:08:25;;;;;;;;;;;;;;;;;;5110253;28;20298;-62
2022/08/29 15:10:50;;;;;;;;;;;;;;;;;;5108552;28;19927;-62
2022/08/29 15:13:16;;;;;;;;;;;;;;;;;;5109109;28;19924;-62
2022/08/29 15:15:41;;;;;;;;;;;;;;;;;;5108769;28;19927;-62
2022/08/29 15:18:06;;;;;;;;;;;;;;;;;;5106342;28;19962;-63
2022/08/29 15:20:31;;;;;;;;;;;;;;;;;;5109061;28;19920;-62
2022/08/29 15:22:57;;;;;;;;;;;;;;;;;;5108995;28;19915;-63
2022/08/29 15:25:22;;;;;;;;;;;;;;;;;;5105023;28;20018;-63
2022/08/29 15:27:47;;;;;;;;;;;;;;;;;;5105702;28;19992;-62
2022/08/29 15:30:13;;;;;;;;;;;;;;;;;;5106070;28;19922;-62
2022/08/29 15:32:39;;;;;;;;;;;;;;;;;;5107842;28;19965;-62
2022/08/29 15:35:04;;;;;;;;;;;;;;;;;;5105155;28;19916;-61
2022/08/29 15:37:30;;;;;;;;;;;;;;;;;;5106548;28;19938;-61
2022/08/29 15:39:55;;;;;;;;;;;;;;;;;;5104554;28;19916;-62
2022/08/29 15:42:27;;;;;;;;;;;;;;;;;;5106647;28;19998;-61
2022/08/29 15:44:52;;;;;;;;;;;;;;;;;;5098225;28;19927;-62
2022/08/29 15:47:17;;;;;;;;;;;;;;;;;;5100352;27;19915;-62
2022/08/29 15:49:42;;;;;;;;;;;;;;;;;;5087252;27;19927;-61
2022/08/29 15:52:08;;;;;;;;;;;;;;;;;;5098796;28;20415;-61
2022/08/29 15:54:34;;;;;;;;;;;;;;;;;;5080167;28;19916;-61
2022/08/29 15:56:59;;;;;;;;;;;;;;;;;;5105831;28;19922;-62
2022/08/29 15:59:26;;;;;;;;;;;;;;;;;;5097407;28;19919;-63
2022/08/29 16:01:51;;;;;;;;;;;;;;;;;;5112402;27;19916;-62
2022/08/29 16:04:16;;;;;;;;;;;;;;;;;;5099328;28;19969;-63
2022/08/29 16:06:42;;;;;;;;;;;;;;;;;;5090786;27;19915;-62
2022/08/29 16:09:07;;;;;;;;;;;;;;;;;;5100901;27;19920;-61
2022/08/29 16:11:33;;;;;;;;;;;;;;;;;;5097817;28;19923;-62
2022/08/29 16:13:58;;;;;;;;;;;;;;;;;;5102601;27;20382;-62
2022/08/29 16:16:23;;;;;;;;;;;;;;;;;;5105316;28;19911;-61
2022/08/29 16:18:49;;;;;;;;;;;;;;;;;;5098393;28;20280;-61
2022/08/29 16:21:14;;;;;;;;;;;;;;;;;;5104382;28;19916;-61
2022/08/29 16:23:39;;;;;;;;;;;;;;;;;;5096757;28;19916;-61
2022/08/29 16:26:04;;;;;;;;;;;;;;;;;;5092704;28;19973;-61
2022/08/29 16:28:30;;;;;;;;;;;;;;;;;;5103435;28;19949;-62
2022/08/29 16:30:55;;;;;;;;;;;;;;;;;;5097228;28;19926;-62
2022/08/29 16:33:20;;;;;;;;;;;;;;;;;;5102709;28;19920;-63
2022/08/29 16:35:46;;;;;;;;;;;;;;;;;;5100639;27;19916;-62
2022/08/29 16:38:11;;;;;;;;;;;;;;;;;;5096257;28;19920;-61